Time;durP1;ratioP1;P1;durP2;ratioP2;P2;SDS_P1;SDS_P2;PMS_P1;PMS_P2;Temp;Humidity;BMP_temperature;BMP_pressure;BME280_temperature;BME280_humidity;BME280_pressure;Samples;Min_cycle;Max_cycle;Signal;HPM_P1;HPM_P2
2022/07/28 00:01:09;;;;;;;4.53;3.95;;;;;;;19.66;71.58;99418.22;1774601;80;21009;-45
2022/07/28 00:03:36;;;;;;;4.58;4.15;;;;;;;19.63;71.50;99412.19;1774372;80;21250;-46
2022/07/28 00:06:05;;;;;;;3.85;3.42;;;;;;;19.63;71.50;99423.19;1774209;80;20969;-45
2022/07/28 00:08:33;;;;;;;5.62;4.10;;;;;;;19.61;71.45;99423.60;1774152;80;21021;-45
2022/07/28 00:11:00;;;;;;;5.62;4.10;;;;;;;19.63;71.39;99430.07;1774303;80;21464;-45
2022/07/28 00:13:28;;;;;;;6.40;3.80;;;;;;;19.64;71.29;99432.41;1774182;80;21017;-45
2022/07/28 00:15:57;;;;;;;4.97;3.95;;;;;;;19.66;71.20;99438.84;1774233;80;21088;-45
2022/07/28 00:18:24;;;;;;;4.53;4.13;;;;;;;19.64;71.08;99430.25;1774504;80;21527;-45
2022/07/28 00:20:51;;;;;;;4.72;4.25;;;;;;;19.59;71.08;99428.76;1774214;80;21008;-45
2022/07/28 00:23:19;;;;;;;7.85;4.03;;;;;;;19.51;71.16;99428.08;1773999;80;20914;-45
2022/07/28 00:25:46;;;;;;;4.65;4.25;;;;;;;19.48;71.17;99426.18;1773918;80;21033;-45
2022/07/28 00:28:14;;;;;;;4.85;4.35;;;;;;;19.44;71.19;99430.96;1774097;80;21138;-45
2022/07/28 00:30:41;;;;;;;4.58;4.05;;;;;;;19.45;71.16;99429.77;1774097;80;21086;-45
2022/07/28 00:33:08;;;;;;;4.62;4.00;;;;;;;19.45;71.09;99432.52;1774083;80;21037;-45
2022/07/28 00:35:35;;;;;;;4.58;3.62;;;;;;;19.47;71.01;99427.37;1774134;80;21556;-45
2022/07/28 00:38:02;;;;;;;7.12;4.08;;;;;;;19.44;70.96;99428.21;1774233;80;21452;-45
2022/07/28 00:43:14;;;;;;;3.98;3.62;;;;;;;19.45;70.91;99425.65;1773945;80;20985;-45
2022/07/28 00:45:42;;;;;;;5.45;4.00;;;;;;;19.48;70.75;99426.18;1773218;80;20914;-45
2022/07/28 00:48:09;;;;;;;4.40;3.95;;;;;;;19.49;70.51;99420.86;1774040;80;21076;-45
2022/07/28 00:50:39;;;;;;;5.30;4.15;;;;;;;19.50;70.35;99420.27;1774248;80;21546;-45
2022/07/28 00:53:07;;;;;;;5.22;3.77;;;;;;;19.46;70.25;99414.80;1773867;80;23248;-45
2022/07/28 00:55:35;;;;;;;5.70;4.50;;;;;;;19.43;70.20;99410.12;1773931;80;21487;-45
2022/07/28 00:58:02;;;;;;;5.40;4.10;;;;;;;19.39;70.17;99413.53;1774227;80;21499;-45
2022/07/28 01:00:30;;;;;;;6.28;4.20;;;;;;;19.33;70.24;99413.81;1778007;80;21619;-45
2022/07/28 01:02:57;;;;;;;5.33;3.95;;;;;;;19.31;70.30;99418.19;1782612;80;21029;-45
2022/07/28 01:05:26;;;;;;;5.70;4.60;;;;;;;19.28;70.34;99422.53;1782624;80;21156;-45
2022/07/28 01:08:04;;;;;;;6.05;4.17;;;;;;;19.25;70.29;99422.00;1782518;80;21530;-45
2022/07/28 01:10:50;;;;;;;5.95;4.28;;;;;;;19.21;70.39;99422.66;1782699;80;20989;-45
2022/07/28 01:13:48;;;;;;;4.70;4.12;;;;;;;19.21;70.51;99424.03;1719401;80;21052;-45
2022/07/28 01:16:15;;;;;;;4.87;4.17;;;;;;;19.18;70.49;99420.72;1758723;80;21498;-45
2022/07/28 01:18:54;;;;;;;4.97;4.35;;;;;;;19.17;70.46;99430.78;1782824;80;20974;-45
2022/07/28 01:21:28;;;;;;;4.50;4.10;;;;;;;19.14;70.44;99431.00;1782892;80;20960;-45
2022/07/28 01:24:26;;;;;;;4.40;4.00;;;;;;;19.14;70.41;99432.97;1783000;80;21555;-45
2022/07/28 01:27:07;;;;;;;4.70;3.95;;;;;;;19.14;70.34;99430.22;1782841;80;21013;-45
2022/07/28 01:29:49;;;;;;;4.65;4.22;;;;;;;19.11;70.25;99435.96;1782703;80;21024;-45
2022/07/28 01:32:24;;;;;;;4.90;4.40;;;;;;;19.07;70.32;99440.11;1782968;80;21853;-45
2022/07/28 01:35:11;;;;;;;5.30;4.28;;;;;;;19.00;70.42;99437.48;1782966;80;21056;-45
2022/07/28 01:37:48;;;;;;;4.90;4.50;;;;;;;18.98;70.52;99432.20;1782738;80;20957;-45
2022/07/28 01:40:17;;;;;;;6.17;3.90;;;;;;;18.98;70.46;99428.86;1782507;80;21000;-45
2022/07/28 01:42:48;;;;;;;5.10;4.20;;;;;;;18.98;70.39;99432.20;1783039;80;21065;-45
2022/07/28 01:45:15;;;;;;;6.10;4.17;;;;;;;18.95;70.36;99432.45;1783054;80;21086;-45
2022/07/28 01:47:45;;;;;;;4.62;4.17;;;;;;;18.92;70.45;99437.41;1782699;80;21020;-45
2022/07/28 01:50:14;;;;;;;4.70;4.30;;;;;;;18.89;70.56;99441.55;1754720;80;22073;-45
2022/07/28 01:52:42;;;;;;;4.70;4.30;;;;;;;18.86;70.44;99446.51;1782670;80;21034;-45
2022/07/28 01:55:10;;;;;;;4.70;4.30;;;;;;;18.85;70.41;99442.20;1782844;80;21044;-45
2022/07/28 01:57:37;;;;;;;5.65;4.03;;;;;;;18.86;70.38;99449.25;1730207;80;21251;-45
2022/07/28 02:00:08;;;;;;;4.55;3.90;;;;;;;18.88;70.24;99440.77;1782392;80;21512;-45
2022/07/28 02:02:37;;;;;;;5.67;4.20;;;;;;;18.92;69.94;99447.02;1782307;80;20964;-45
2022/07/28 02:05:07;;;;;;;6.60;4.25;;;;;;;18.87;69.81;99451.59;1782578;80;21538;-45
2022/07/28 02:07:34;;;;;;;6.12;4.40;;;;;;;18.74;69.96;99450.57;1782357;80;21056;-45
2022/07/28 02:10:04;;;;;;;4.60;4.20;;;;;;;18.59;70.25;99447.81;1782314;80;21489;-45
2022/07/28 02:12:32;;;;;;;4.17;3.77;;;;;;;18.46;70.56;99446.77;1782541;80;21032;-45
2022/07/28 02:14:59;;;;;;;6.25;4.45;;;;;;;18.42;70.79;99441.33;1782610;80;21653;-45
2022/07/28 02:17:30;;;;;;;5.50;4.10;;;;;;;18.46;70.77;99443.44;1782689;80;21482;-46
2022/07/28 02:19:58;;;;;;;5.50;4.28;;;;;;;18.47;70.66;99457.36;1782524;80;21031;-45
2022/07/28 02:22:26;;;;;;;4.47;4.08;;;;;;;18.36;70.85;99461.39;1782562;80;21253;-45
2022/07/28 02:24:54;;;;;;;4.78;4.20;;;;;;;18.26;71.26;99460.32;1782913;80;21518;-45
2022/07/28 02:27:48;;;;;;;4.12;3.83;;;;;;;18.24;71.45;99458.59;1752290;80;21004;-45
2022/07/28 02:30:24;;;;;;;4.25;3.85;;;;;;;18.27;71.31;99460.52;1782612;80;21076;-45
2022/07/28 02:33:01;;;;;;;6.25;4.08;;;;;;;18.32;71.04;99461.44;1782479;80;21079;-46
2022/07/28 02:35:58;;;;;;;4.58;4.17;;;;;;;18.29;71.13;99462.27;1782074;80;21828;-45
2022/07/28 02:38:29;;;;;;;4.87;4.30;;;;;;;18.22;71.26;99452.13;1781422;80;20964;-45
2022/07/28 02:40:59;;;;;;;4.97;4.47;;;;;;;18.22;71.29;99456.25;1782584;80;20988;-45
2022/07/28 02:43:28;;;;;;;6.00;4.90;;;;;;;18.27;71.22;99463.26;1782526;80;20993;-45
2022/07/28 02:45:59;;;;;;;5.60;4.78;;;;;;;18.32;71.09;99471.05;1782610;80;21024;-45
2022/07/28 02:48:29;;;;;;;8.53;6.12;;;;;;;18.37;70.99;99466.48;1782486;80;21199;-45
2022/07/28 02:50:56;;;;;;;;;;;;;;;18.38;70.98;99469.42;1784997;80;21000;-45
2022/07/28 02:53:23;;;;;;;7.47;6.20;;;;;;;18.40;70.84;99464.88;1782326;80;20115;-45
2022/07/28 02:55:51;;;;;;;5.83;5.10;;;;;;;18.31;70.89;99459.87;1782367;80;20995;-45
2022/07/28 02:58:23;;;;;;;5.97;5.40;;;;;;;18.34;70.70;99452.81;1752036;80;21053;-45
2022/07/28 03:00:53;;;;;;;6.53;5.87;;;;;;;18.39;70.63;99453.14;1782369;80;21911;-45
2022/07/28 03:03:20;;;;;;;8.20;6.37;;;;;;;18.41;70.84;99449.97;1752327;80;21036;-45
2022/07/28 03:05:49;;;;;;;10.87;6.87;;;;;;;18.42;71.00;99455.06;1782644;80;21609;-45
2022/07/28 03:08:16;;;;;;;6.90;6.20;;;;;;;18.36;71.08;99455.31;1782476;80;21515;-45
2022/07/28 03:10:44;;;;;;;6.45;5.85;;;;;;;18.39;71.17;99452.36;1782359;80;20974;-45
2022/07/28 03:13:11;;;;;;;6.80;6.12;;;;;;;18.44;71.19;99459.55;1782634;80;21767;-45
2022/07/28 03:15:42;;;;;;;7.87;6.55;;;;;;;18.49;71.14;99465.19;1782484;80;20949;-45
2022/07/28 03:18:09;;;;;;;8.58;6.58;;;;;;;18.51;71.13;99467.70;1782878;80;20952;-45
2022/07/28 03:20:36;;;;;;;8.08;7.05;;;;;;;18.50;71.14;99464.76;1782581;80;21037;-45
2022/07/28 03:23:04;;;;;;;6.65;5.95;;;;;;;18.47;71.30;99475.20;1782541;80;21074;-45
2022/07/28 03:25:42;;;;;;;7.37;6.55;;;;;;;18.49;71.42;99478.30;1782437;80;22125;-45
2022/07/28 03:28:13;;;;;;;7.95;6.55;;;;;;;18.54;71.33;99471.02;1782287;80;20929;-45
2022/07/28 03:30:42;;;;;;;8.20;6.35;;;;;;;18.55;71.33;99467.08;1782566;80;21049;-45
2022/07/28 03:33:10;;;;;;;8.68;6.87;;;;;;;18.55;71.38;99472.58;1782504;80;20981;-45
2022/07/28 03:35:40;;;;;;;8.10;6.80;;;;;;;18.56;71.33;99471.39;1782477;80;21052;-45
2022/07/28 03:38:13;;;;;;;6.97;6.28;;;;;;;18.58;71.18;99478.64;1782596;80;21119;-45
2022/07/28 03:40:40;;;;;;;8.13;7.33;;;;;;;18.62;70.92;99480.75;1782413;80;20960;-45
2022/07/28 03:43:08;;;;;;;8.00;7.20;;;;;;;18.64;70.86;99475.60;1751645;80;20998;-45
2022/07/28 03:45:35;;;;;;;9.98;7.70;;;;;;;18.65;70.80;99485.41;1782525;80;20929;-45
2022/07/28 03:48:05;;;;;;;8.58;7.10;;;;;;;18.66;70.85;99486.19;1782330;80;21024;-45
2022/07/28 03:50:32;;;;;;;7.20;6.50;;;;;;;18.67;70.84;99489.13;1782359;80;21313;-45
2022/07/28 03:53:04;;;;;;;6.97;6.28;;;;;;;18.66;70.76;99488.94;1782124;80;20999;-45
2022/07/28 03:55:29;;;;;;;6.53;5.85;;;;;;;18.67;70.90;99494.61;1781737;80;21538;-45
2022/07/28 03:57:56;;;;;;;6.87;6.17;;;;;;;18.70;71.15;99499.27;1782340;80;21035;-45
2022/07/28 04:00:24;;;;;;;6.30;5.70;;;;;;;18.72;71.23;99503.00;1782215;80;21022;-45
2022/07/28 04:02:53;;;;;;;6.27;5.50;;;;;;;18.76;71.45;99501.77;1782708;80;21203;-45
2022/07/28 04:05:20;;;;;;;5.62;5.12;;;;;;;18.81;71.48;99500.53;1782408;80;20925;-45
2022/07/28 04:07:48;;;;;;;6.83;4.80;;;;;;;18.86;71.47;99498.70;1782422;80;20987;-45
2022/07/28 04:10:17;;;;;;;5.90;5.30;;;;;;;18.93;71.49;99504.09;1782467;80;21072;-45
2022/07/28 04:12:51;;;;;;;5.97;5.47;;;;;;;18.98;71.59;99507.76;1782629;80;21084;-45
2022/07/28 04:15:18;;;;;;;5.37;4.87;;;;;;;18.97;71.51;99504.26;1782510;80;21231;-45
2022/07/28 04:17:47;;;;;;;6.08;5.33;;;;;;;19.00;71.74;99511.66;1782414;80;21008;-45
2022/07/28 04:20:16;;;;;;;5.42;4.92;;;;;;;19.07;71.78;99512.93;1782590;80;21014;-45
2022/07/28 04:22:44;;;;;;;5.35;4.30;;;;;;;19.14;71.79;99514.03;1782433;80;21007;-45
2022/07/28 04:25:13;;;;;;;5.10;4.60;;;;;;;19.20;71.69;99515.92;1782341;80;21066;-45
2022/07/28 04:27:41;;;;;;;6.05;4.50;;;;;;;19.25;71.54;99507.22;1782473;80;25684;-45
2022/07/28 04:30:12;;;;;;;5.65;4.58;;;;;;;19.30;71.44;99515.00;1782333;80;20929;-45
2022/07/28 04:32:40;;;;;;;6.22;4.62;;;;;;;19.32;71.30;99518.09;1782353;80;21476;-45
2022/07/28 04:35:08;;;;;;;5.20;4.00;;;;;;;19.32;71.26;99515.34;1782153;80;21040;-45
2022/07/28 04:37:36;;;;;;;6.62;4.55;;;;;;;19.33;71.27;99523.78;1782173;80;21103;-45
2022/07/28 04:40:08;;;;;;;5.55;3.90;;;;;;;19.37;71.42;99521.75;1782107;80;21207;-45
2022/07/28 04:42:37;;;;;;;4.30;3.90;;;;;;;19.45;71.40;99531.51;1782546;80;21586;-45
2022/07/28 04:45:07;;;;;;;4.58;3.95;;;;;;;19.48;71.30;99524.39;1782374;80;21363;-45
2022/07/28 04:47:34;;;;;;;4.22;3.83;;;;;;;19.52;71.40;99521.77;1781988;80;21080;-45
2022/07/28 04:50:05;;;;;;;3.90;3.50;;;;;;;19.59;71.18;99513.23;1782391;80;21032;-45
2022/07/28 04:52:32;;;;;;;4.78;3.45;;;;;;;19.64;70.92;99515.52;1782369;80;21094;-45
2022/07/28 04:55:00;;;;;;;3.52;3.08;;;;;;;19.71;70.78;99518.14;1782108;80;20957;-45
2022/07/28 04:57:29;;;;;;;3.58;3.27;;;;;;;19.77;70.89;99522.77;1782356;80;20939;-45
2022/07/28 04:59:57;;;;;;;5.60;2.87;;;;;;;19.83;70.57;99523.85;1782478;80;21024;-45
2022/07/28 05:02:24;;;;;;;3.60;2.87;;;;;;;19.86;70.02;99529.11;1776063;80;21017;-45
2022/07/28 05:04:51;;;;;;;3.37;2.50;;;;;;;19.85;69.68;99526.16;1767807;80;21264;-45
2022/07/28 05:07:19;;;;;;;3.90;2.22;;;;;;;19.91;69.76;99523.13;1774023;80;21041;-45
2022/07/28 05:09:47;;;;;;;4.53;2.50;;;;;;;19.99;69.90;99532.84;1774021;80;21507;-45
2022/07/28 05:12:14;;;;;;;4.03;2.50;;;;;;;20.04;69.50;99526.86;1773973;80;20941;-45
2022/07/28 05:16:27;;;;;;;2.67;2.20;;;;;;;20.17;68.96;99535.28;1830272;78;22487;-45
2022/07/28 05:18:55;;;;;;;2.72;2.05;;;;;;;20.08;68.72;99537.20;1803179;79;20935;-45
2022/07/28 05:21:22;;;;;;;5.15;2.00;;;;;;;20.10;68.56;99543.66;1803468;79;21560;-45
2022/07/28 05:23:49;;;;;;;2.67;1.90;;;;;;;20.16;67.95;99537.85;1803137;79;21550;-45
2022/07/28 05:26:17;;;;;;;2.92;2.10;;;;;;;20.21;68.12;99549.16;1803150;79;20935;-45
2022/07/28 05:28:45;;;;;;;4.45;1.98;;;;;;;20.28;68.19;99546.90;1803295;79;20923;-45
2022/07/28 05:31:12;;;;;;;3.27;2.20;;;;;;;20.37;67.57;99557.58;1803094;79;20884;-45
2022/07/28 05:33:39;;;;;;;4.17;1.77;;;;;;;20.39;67.03;99553.78;1803270;79;21309;-45
2022/07/28 05:36:08;;;;;;;2.72;1.85;;;;;;;20.45;66.78;99556.05;1803044;79;21002;-45
2022/07/28 05:38:35;;;;;;;2.58;1.92;;;;;;;20.46;65.98;99554.86;1747213;79;20959;-45
2022/07/28 05:41:02;;;;;;;2.98;2.00;;;;;;;20.45;65.30;99554.68;1803156;79;21061;-45
2022/07/28 05:43:29;;;;;;;5.97;2.02;;;;;;;20.45;65.62;99551.33;1803261;79;21050;-45
2022/07/28 05:45:56;;;;;;;4.08;2.00;;;;;;;20.50;65.88;99560.48;1803125;79;21066;-45
2022/07/28 05:48:24;;;;;;;4.90;1.98;;;;;;;20.59;65.99;99557.17;1803257;79;20947;-45
2022/07/28 05:50:53;;;;;;;4.35;1.70;;;;;;;20.71;65.95;99553.21;1803258;79;21011;-45
2022/07/28 05:53:20;;;;;;;2.33;1.57;;;;;;;20.81;64.43;99552.83;1797680;79;20962;-45
2022/07/28 05:55:47;;;;;;;2.37;1.60;;;;;;;20.85;63.58;99554.91;1803389;79;21058;-45
2022/07/28 05:58:14;;;;;;;2.95;1.70;;;;;;;20.85;63.00;99561.02;1803612;79;22010;-45
2022/07/28 06:00:41;;;;;;;2.30;1.50;;;;;;;20.84;63.40;99565.75;1803503;79;20923;-45
2022/07/28 06:03:08;;;;;;;4.35;2.12;;;;;;;20.86;62.37;99564.73;1803301;79;20982;-45
2022/07/28 06:05:36;;;;;;;2.27;1.62;;;;;;;20.89;62.15;99570.77;1803239;79;20988;-45
2022/07/28 06:08:04;;;;;;;3.52;1.70;;;;;;;20.91;62.04;99573.89;1803139;79;21066;-45
2022/07/28 06:13:19;;;;;;;3.92;1.92;;;;;;;21.09;62.12;99581.20;1803128;79;21504;-45
2022/07/28 06:15:51;;;;;;;3.10;1.87;;;;;;;21.20;59.84;99566.60;1796348;79;21071;-45
2022/07/28 06:18:19;;;;;;;4.42;2.00;;;;;;;21.23;59.88;99576.02;1792220;80;20990;-45
2022/07/28 06:20:46;;;;;;;3.72;1.90;;;;;;;21.26;59.12;99569.64;1792194;80;21015;-45
2022/07/28 06:23:22;;;;;;;3.35;1.65;;;;;;;21.31;59.31;99564.22;1792151;80;21234;-45
2022/07/28 06:25:51;;;;;;;3.77;1.77;;;;;;;21.31;59.03;99563.62;1792056;80;20971;-45
2022/07/28 06:28:18;;;;;;;2.45;1.95;;;;;;;21.36;59.03;99576.13;1791273;79;21040;-45
2022/07/28 06:30:47;;;;;;;5.33;1.95;;;;;;;21.41;59.14;99581.14;1791509;80;21051;-45
2022/07/28 06:33:15;;;;;;;2.98;1.90;;;;;;;21.45;59.30;99581.24;1791671;80;21055;-45
2022/07/28 06:35:42;;;;;;;6.10;2.10;;;;;;;21.53;57.53;99579.13;1791579;80;21103;-45
2022/07/28 06:38:10;;;;;;;4.45;1.85;;;;;;;21.61;57.44;99581.89;1791486;80;20905;-45
2022/07/28 06:40:38;;;;;;;4.33;2.20;;;;;;;21.68;56.54;99582.52;1791670;80;21047;-45
2022/07/28 06:43:06;;;;;;;3.47;1.98;;;;;;;21.75;56.88;99581.56;1791572;80;20987;-45
2022/07/28 06:45:33;;;;;;;6.37;2.30;;;;;;;21.81;56.27;99585.38;1791730;79;21027;-45
2022/07/28 06:48:01;;;;;;;4.37;1.95;;;;;;;21.87;56.08;99582.28;1791821;79;22069;-45
2022/07/28 06:50:28;;;;;;;6.22;2.10;;;;;;;21.93;55.77;99586.09;1791411;80;21580;-45
2022/07/28 06:52:55;;;;;;;4.50;2.10;;;;;;;22.02;55.49;99587.67;1791465;80;21482;-45
2022/07/28 06:55:23;;;;;;;6.65;2.12;;;;;;;22.09;55.80;99599.13;1745535;80;21002;-45
2022/07/28 06:57:51;;;;;;;4.22;2.12;;;;;;;22.14;55.31;99590.93;1791569;79;21018;-45
2022/07/28 07:00:18;;;;;;;2.62;1.77;;;;;;;22.19;55.27;99588.43;1791686;80;23116;-45
2022/07/28 07:02:47;;;;;;;5.20;2.10;;;;;;;22.25;55.43;99592.23;1791780;79;20922;-45
2022/07/28 07:05:14;;;;;;;4.03;1.80;;;;;;;22.33;55.16;99590.84;1791718;80;21058;-45
2022/07/28 07:07:43;;;;;;;3.37;1.65;;;;;;;22.43;54.08;99593.16;1791755;80;20899;-45
2022/07/28 07:10:10;;;;;;;5.50;1.62;;;;;;;22.50;52.79;99597.13;1791751;80;21288;-45
2022/07/28 07:12:38;;;;;;;3.95;1.42;;;;;;;22.58;52.05;99590.20;1791689;80;21242;-45
2022/07/28 07:15:07;;;;;;;4.90;2.15;;;;;;;22.70;52.06;99601.97;1793014;79;20914;-45
2022/07/28 07:17:36;;;;;;;3.50;1.45;;;;;;;22.79;51.78;99604.87;1799960;79;20965;-45
2022/07/28 07:20:06;;;;;;;3.42;1.45;;;;;;;22.86;51.73;99605.27;1794521;79;20969;-45
2022/07/28 07:22:45;;;;;;;4.87;1.45;;;;;;;22.93;51.52;99605.88;1800227;79;21001;-45
2022/07/28 07:25:15;;;;;;;3.27;1.60;;;;;;;23.04;51.03;99604.80;1799929;79;21132;-45
2022/07/28 07:27:45;;;;;;;2.45;1.60;;;;;;;23.12;50.05;99607.53;1800474;79;20966;-45
2022/07/28 07:30:14;;;;;;;5.62;1.72;;;;;;;23.18;50.25;99600.25;1800006;79;20910;-46
2022/07/28 07:32:42;;;;;;;1.45;1.30;;;;;;;23.24;50.46;99603.41;1800254;79;21005;-45
2022/07/28 07:35:09;;;;;;;2.05;1.20;;;;;;;23.29;49.91;99600.70;1799976;79;21068;-46
2022/07/28 07:37:37;;;;;;;7.67;1.40;;;;;;;23.37;49.63;99604.23;1799878;79;21132;-46
2022/07/28 07:40:06;;;;;;;2.30;1.27;;;;;;;23.51;48.69;99605.82;1799815;79;21542;-46
2022/07/28 07:42:33;;;;;;;3.87;1.32;;;;;;;23.63;48.48;99613.95;1800591;79;21065;-46
2022/07/28 07:45:00;;;;;;;1.60;1.20;;;;;;;23.74;47.67;99613.81;1800062;79;21013;-46
2022/07/28 07:47:27;;;;;;;3.08;1.37;;;;;;;23.88;47.29;99607.66;1800010;79;21001;-46
2022/07/28 07:49:54;;;;;;;2.30;1.30;;;;;;;24.05;47.65;99604.34;1799848;79;23176;-46
2022/07/28 07:52:22;;;;;;;2.33;1.42;;;;;;;24.21;47.60;99618.68;1799949;79;20949;-46
2022/07/28 07:54:48;;;;;;;2.45;1.30;;;;;;;24.30;47.42;99613.27;1800242;79;20934;-45
2022/07/28 07:57:16;;;;;;;3.62;1.55;;;;;;;24.38;45.70;99618.72;1800178;79;20942;-46
2022/07/28 07:59:43;;;;;;;3.17;1.22;;;;;;;24.46;45.91;99615.09;1800192;79;21084;-45
2022/07/28 08:02:11;;;;;;;2.98;1.30;;;;;;;24.52;46.68;99619.63;1799964;79;23150;-45
2022/07/28 08:04:39;;;;;;;3.17;1.30;;;;;;;24.59;46.43;99619.37;1800121;79;20910;-46
2022/07/28 08:07:06;;;;;;;2.60;1.20;;;;;;;24.65;45.34;99616.20;1799981;79;20942;-46
2022/07/28 08:09:33;;;;;;;4.10;1.40;;;;;;;24.74;44.96;99620.30;1800145;79;21487;-46
2022/07/28 08:12:03;;;;;;;3.30;1.40;;;;;;;24.85;43.65;99617.91;1799849;79;21494;-46
2022/07/28 08:14:32;;;;;;;3.67;1.50;;;;;;;24.91;44.01;99620.30;1799969;79;20989;-46
2022/07/28 08:16:59;;;;;;;3.20;1.27;;;;;;;25.00;43.25;99612.05;1807026;79;20992;-45
2022/07/28 08:19:26;;;;;;;3.33;1.37;;;;;;;25.05;42.83;99619.80;1808409;79;20922;-46
2022/07/28 08:21:57;;;;;;;3.33;1.40;;;;;;;25.12;43.66;99622.94;1808543;79;21068;-45
2022/07/28 08:24:24;;;;;;;3.58;1.30;;;;;;;25.18;43.13;99624.66;1808626;79;21060;-46
2022/07/28 08:26:52;;;;;;;2.05;1.32;;;;;;;25.26;42.50;99616.25;1808400;79;21134;-46
2022/07/28 08:29:19;;;;;;;2.87;1.25;;;;;;;25.29;42.62;99618.11;1808390;79;20910;-46
2022/07/28 08:31:46;;;;;;;2.87;1.35;;;;;;;25.30;42.90;99619.66;1808551;79;20965;-46
2022/07/28 08:34:13;;;;;;;3.98;1.45;;;;;;;25.34;42.26;99632.80;1808447;79;20913;-45
2022/07/28 08:36:40;;;;;;;1.87;1.30;;;;;;;25.37;42.04;99629.71;1808553;79;21037;-46
2022/07/28 08:39:07;;;;;;;2.52;1.40;;;;;;;25.39;42.74;99633.59;1808133;79;23116;-46
2022/07/28 08:41:47;;;;;;;2.65;1.40;;;;;;;25.41;41.47;99631.16;1808394;79;20949;-46
2022/07/28 08:44:15;;;;;;;2.55;1.37;;;;;;;25.44;42.07;99633.02;1808570;78;21558;-46
2022/07/28 08:46:42;;;;;;;3.20;1.52;;;;;;;25.50;41.75;99631.20;1808339;79;21543;-46
2022/07/28 08:49:09;;;;;;;2.65;1.42;;;;;;;25.60;41.98;99627.89;1808322;79;21013;-46
2022/07/28 08:51:37;;;;;;;2.20;1.10;;;;;;;25.71;41.45;99619.13;1808529;79;21138;-46
2022/07/28 08:54:05;;;;;;;2.22;1.40;;;;;;;25.84;42.00;99618.44;1808241;79;20976;-46
2022/07/28 08:56:32;;;;;;;3.87;1.50;;;;;;;26.02;41.68;99613.55;1808227;79;20965;-46
2022/07/28 08:59:00;;;;;;;2.52;1.20;;;;;;;26.14;39.91;99612.04;1808621;79;21009;-46
2022/07/28 09:01:27;;;;;;;2.47;1.32;;;;;;;26.13;39.60;99616.08;1779566;79;20978;-46
2022/07/28 09:03:54;;;;;;;4.03;1.57;;;;;;;26.12;39.97;99610.35;1808736;79;21129;-46
2022/07/28 09:06:22;;;;;;;2.08;1.30;;;;;;;26.13;39.48;99619.47;1808472;79;20956;-46
2022/07/28 09:08:50;;;;;;;3.90;1.57;;;;;;;26.20;39.92;99619.16;1808893;79;20933;-46
2022/07/28 09:11:19;;;;;;;3.52;1.20;;;;;;;26.25;39.26;99623.53;1808576;79;21268;-46
2022/07/28 09:13:46;;;;;;;1.82;1.22;;;;;;;26.22;39.38;99614.73;1808705;79;21001;-46
2022/07/28 09:16:14;;;;;;;3.58;1.25;;;;;;;26.22;39.62;99614.73;1802103;79;21231;-46
2022/07/28 09:18:41;;;;;;;5.95;1.50;;;;;;;26.25;39.46;99617.20;1791346;80;21044;-46
2022/07/28 09:21:10;;;;;;;3.58;1.27;;;;;;;26.26;39.39;99615.97;1791517;80;20928;-46
2022/07/28 09:23:47;;;;;;;2.45;1.42;;;;;;;26.29;38.62;99618.59;1768884;80;21598;-46
2022/07/28 09:26:18;;;;;;;4.10;1.05;;;;;;;26.34;39.25;99626.33;1791442;80;21070;-46
2022/07/28 09:28:55;;;;;;;4.00;1.27;;;;;;;26.42;39.09;99631.00;1791253;80;23106;-46
2022/07/28 09:31:24;;;;;;;1.55;1.30;;;;;;;26.44;38.12;99623.56;1791504;80;20973;-46
2022/07/28 09:33:59;;;;;;;2.90;1.20;;;;;;;26.41;39.41;99635.00;1791538;80;21511;-46
2022/07/28 09:36:28;;;;;;;2.85;1.20;;;;;;;26.43;39.09;99638.11;1791787;80;21014;-46
2022/07/28 09:38:55;;;;;;;2.12;1.17;;;;;;;26.46;38.30;99623.27;1789976;79;21065;-46
2022/07/28 09:41:24;;;;;;;2.70;1.30;;;;;;;26.48;39.15;99627.74;1791440;80;21479;-46
2022/07/28 09:43:51;;;;;;;2.72;1.40;;;;;;;26.46;38.68;99626.67;1791527;80;20946;-46
2022/07/28 09:46:21;;;;;;;2.00;1.20;;;;;;;26.43;38.80;99626.21;1791487;80;20962;-46
2022/07/28 09:48:56;;;;;;;2.30;1.17;;;;;;;26.53;39.17;99622.22;1791365;80;20971;-46
2022/07/28 09:51:29;;;;;;;4.45;1.30;;;;;;;26.70;38.88;99630.41;1791701;79;21598;-46
2022/07/28 09:54:13;;;;;;;2.92;1.30;;;;;;;26.84;38.01;99625.63;1791256;79;21206;-46
2022/07/28 09:56:43;;;;;;;2.60;0.98;;;;;;;26.90;38.28;99629.38;1791874;80;20986;-46
2022/07/28 09:59:12;;;;;;;2.85;1.32;;;;;;;27.02;38.16;99630.43;1791720;80;20965;-46
2022/07/28 10:01:59;;;;;;;3.00;1.40;;;;;;;27.09;36.86;99632.30;1791952;80;21037;-46
2022/07/28 10:04:39;;;;;;;2.12;1.20;;;;;;;27.05;36.33;99624.73;1791921;80;20934;-46
2022/07/28 10:07:15;;;;;;;2.08;1.30;;;;;;;26.97;36.69;99624.09;1791891;80;21975;-46
2022/07/28 10:10:00;;;;;;;2.95;1.35;;;;;;;26.96;37.49;99630.30;1791635;80;21539;-46
2022/07/28 10:12:30;;;;;;;4.15;1.50;;;;;;;27.06;37.47;99629.03;1791558;80;21082;-46
2022/07/28 10:14:59;;;;;;;2.70;1.22;;;;;;;27.24;37.42;99630.42;1791728;80;21016;-46
2022/07/28 10:17:32;;;;;;;3.93;1.30;;;;;;;27.47;36.13;99629.60;1795962;79;21024;-46
2022/07/28 10:20:05;;;;;;;3.00;1.25;;;;;;;27.66;35.50;99634.69;1797413;79;20974;-46
2022/07/28 10:22:36;;;;;;;3.15;1.40;;;;;;;27.79;35.15;99628.91;1790893;79;21605;-46
2022/07/28 10:25:14;;;;;;;3.50;1.25;;;;;;;27.91;35.03;99632.12;1767010;79;21223;-46
2022/07/28 10:27:41;;;;;;;2.17;1.30;;;;;;;28.03;33.81;99627.59;1797791;79;21484;-46
2022/07/28 10:30:11;;;;;;;4.37;1.30;;;;;;;28.10;33.08;99623.83;1797647;79;21009;-46
2022/07/28 10:32:42;;;;;;;2.55;1.02;;;;;;;28.12;33.90;99622.61;1797707;79;21493;-46
2022/07/28 10:35:16;;;;;;;2.90;1.05;;;;;;;28.22;34.77;99622.72;1797307;79;20973;-46
2022/07/28 10:38:04;;;;;;;2.22;1.20;;;;;;;28.44;34.51;99631.55;1797408;79;20923;-46
2022/07/28 10:40:35;;;;;;;1.60;1.00;;;;;;;28.68;33.37;99633.72;1797407;79;20945;-46
2022/07/28 10:43:02;;;;;;;2.83;1.35;;;;;;;28.72;32.24;99627.36;1797742;79;21017;-46
2022/07/28 10:45:30;;;;;;;3.00;1.50;;;;;;;28.75;32.38;99619.44;1797923;79;21542;-46
2022/07/28 10:47:57;;;;;;;1.70;1.00;;;;;;;28.95;32.95;99620.19;1797654;79;21065;-45
2022/07/28 10:50:24;;;;;;;2.37;1.30;;;;;;;29.25;32.91;99627.98;1797608;79;20977;-45
2022/07/28 10:52:51;;;;;;;4.75;1.40;;;;;;;29.34;31.53;99630.08;1797693;79;20989;-46
2022/07/28 10:55:52;;;;;;;2.40;1.20;;;;;;;29.35;32.16;99621.85;1797408;79;20923;-46
2022/07/28 10:58:31;;;;;;;3.75;1.15;;;;;;;29.53;32.41;99627.86;1797276;79;21134;-46
2022/07/28 11:00:59;;;;;;;5.03;1.20;;;;;;;29.87;32.28;99627.78;1771274;79;21057;-46
2022/07/28 11:03:43;;;;;;;2.52;1.30;;;;;;;30.10;30.71;99625.52;1790483;79;20945;-46
2022/07/28 11:06:30;;;;;;;3.42;1.12;;;;;;;30.25;30.42;99624.06;1797574;79;21029;-46
2022/07/28 11:09:00;;;;;;;3.83;1.30;;;;;;;30.49;30.70;99625.30;1797678;79;21621;-46
2022/07/28 11:11:51;;;;;;;1.75;1.05;;;;;;;30.74;29.72;99618.23;1783956;79;22013;-46
2022/07/28 11:14:37;;;;;;;3.22;1.35;;;;;;;30.92;29.59;99615.13;1797412;79;21072;-46
2022/07/28 11:17:11;;;;;;;2.00;1.10;;;;;;;31.06;29.95;99612.89;1794619;79;21492;-46
2022/07/28 11:19:52;;;;;;;2.12;1.37;;;;;;;31.32;29.50;99623.45;1791584;79;21069;-46
2022/07/28 11:22:23;;;;;;;3.15;1.30;;;;;;;31.53;29.09;99613.56;1791505;80;21005;-46
2022/07/28 11:25:03;;;;;;;3.25;1.10;;;;;;;31.66;28.57;99607.71;1791688;80;21307;-46
2022/07/28 11:27:45;;;;;;;;;;;;;;;31.91;27.93;99608.92;1794746;79;21497;-46
2022/07/28 11:30:34;;;;;;;2.12;1.00;;;;;;;32.01;28.46;99605.28;1791670;80;20484;-46
2022/07/28 11:33:02;;;;;;;5.00;1.30;;;;;;;32.08;28.40;99601.39;1791840;79;20998;-46
2022/07/28 11:35:44;;;;;;;3.17;1.17;;;;;;;32.29;28.05;99608.41;1791688;79;21262;-46
2022/07/28 11:38:12;;;;;;;2.10;1.30;;;;;;;32.61;28.02;99602.70;1791544;79;21226;-46
2022/07/28 11:40:47;;;;;;;2.52;1.07;;;;;;;32.86;25.76;99604.61;1791521;80;21017;-46
2022/07/28 11:43:30;;;;;;;3.22;1.37;;;;;;;32.90;26.41;99597.33;1791419;79;20970;-46
2022/07/28 11:46:09;;;;;;;1.90;1.05;;;;;;;32.97;26.03;99597.59;1791684;79;21033;-46
2022/07/28 11:48:38;;;;;;;;;;;;;;;33.03;26.17;99595.56;1794190;79;21069;-46
2022/07/28 11:51:10;;;;;;;2.05;1.10;;;;;;;32.99;26.19;99589.44;1791575;79;21233;-46
2022/07/28 11:53:52;;;;;;;1.80;1.20;;;;;;;33.06;26.73;99591.76;1791561;79;20958;-46
2022/07/28 11:56:36;;;;;;;2.27;1.05;;;;;;;33.31;25.67;99584.38;1791465;80;20938;-46